createdAt,value
2017-10-21T00:01:47.738Z,3.33
2017-10-21T00:04:15.368Z,3.20
2017-10-21T00:06:42.963Z,3.30
2017-10-21T00:09:10.593Z,3.53
2017-10-21T00:11:38.957Z,3.10
2017-10-21T00:14:06.552Z,3.70
2017-10-21T00:16:34.197Z,3.90
2017-10-21T00:19:02.572Z,2.70
2017-10-21T00:21:30.965Z,3.73
2017-10-21T00:23:59.336Z,3.73
2017-10-21T00:26:27.696Z,2.53
2017-10-21T00:28:55.333Z,3.30
2017-10-21T00:31:22.928Z,3.23
2017-10-21T00:33:51.331Z,3.67
2017-10-21T00:36:18.974Z,3.70
2017-10-21T00:38:47.345Z,3.37
2017-10-21T00:41:14.970Z,3.17
2017-10-21T00:43:42.580Z,3.10
2017-10-21T00:46:10.973Z,2.33
2017-10-21T00:48:38.561Z,3.33
2017-10-21T00:51:06.155Z,3.20
2017-10-21T00:53:33.777Z,3.43
2017-10-21T00:56:01.378Z,3.20
2017-10-21T00:58:29.008Z,3.40
2017-10-21T01:00:56.617Z,3.43
2017-10-21T01:03:24.997Z,3.63
2017-10-21T01:05:53.409Z,3.00
2017-10-21T01:08:21.011Z,3.30
2017-10-21T01:10:48.666Z,3.63
2017-10-21T01:13:16.265Z,2.53
2017-10-21T01:15:44.630Z,3.33
2017-10-21T01:18:13.026Z,3.40
2017-10-21T01:20:41.394Z,2.53
2017-10-21T01:23:09.793Z,3.30
2017-10-21T01:25:37.386Z,3.73
2017-10-21T01:28:04.974Z,2.60
2017-10-21T01:30:32.603Z,2.87
2017-10-21T01:33:00.205Z,3.33
2017-10-21T01:35:28.618Z,2.33
2017-10-21T01:37:56.217Z,2.60
2017-10-21T01:40:23.811Z,3.17
2017-10-21T01:42:52.213Z,4.07
2017-10-21T01:45:19.846Z,3.80
2017-10-21T01:47:47.466Z,2.90
2017-10-21T01:50:15.057Z,3.93
2017-10-21T01:52:42.677Z,2.60
2017-10-21T01:55:10.273Z,3.10
2017-10-21T01:57:37.915Z,2.87
2017-10-21T02:00:05.526Z,2.80
2017-10-21T02:02:33.921Z,3.07
2017-10-21T02:05:01.520Z,2.30
2017-10-21T02:07:29.132Z,2.27
2017-10-21T02:09:57.513Z,2.50
2017-10-21T02:12:25.108Z,2.90
2017-10-21T02:14:52.734Z,2.33
2017-10-21T02:17:20.338Z,2.83
2017-10-21T02:19:47.957Z,3.10
2017-10-21T02:22:15.677Z,2.20
2017-10-21T02:24:43.304Z,2.63
2017-10-21T02:27:10.923Z,2.70
2017-10-21T02:29:39.314Z,2.90
2017-10-21T02:32:07.680Z,2.37
2017-10-21T02:34:36.071Z,3.30
2017-10-21T02:37:04.433Z,3.30
2017-10-21T02:39:32.097Z,4.37
2017-10-21T02:42:00.458Z,3.37
2017-10-21T02:44:28.058Z,3.23
2017-10-21T02:46:55.683Z,3.90
2017-10-21T02:49:23.286Z,3.10
2017-10-21T02:51:50.918Z,2.53
2017-10-21T02:54:18.524Z,2.30
2017-10-21T02:56:46.179Z,3.00
2017-10-21T02:59:13.781Z,4.67
2017-10-21T03:01:41.419Z,2.83
2017-10-21T03:04:09.025Z,2.20
2017-10-21T03:06:36.659Z,2.53
2017-10-21T03:09:04.281Z,2.90
2017-10-21T03:11:31.981Z,2.63
2017-10-21T03:14:00.360Z,3.80
2017-10-21T03:16:27.986Z,3.00
2017-10-21T03:18:55.582Z,2.27
2017-10-21T03:21:23.201Z,3.40
2017-10-21T03:23:50.799Z,2.87
2017-10-21T03:26:19.929Z,2.57
2017-10-21T03:28:48.305Z,3.37
2017-10-21T03:31:16.708Z,3.73
2017-10-21T03:33:44.306Z,2.93
2017-10-21T03:36:11.929Z,2.60
2017-10-21T03:38:39.534Z,2.67
2017-10-21T03:41:07.152Z,2.90
2017-10-21T03:43:34.761Z,2.40
2017-10-21T03:46:02.406Z,3.67
2017-10-21T03:48:30.021Z,2.60
2017-10-21T03:50:58.409Z,2.60
2017-10-21T03:53:26.011Z,2.10
2017-10-21T03:55:53.642Z,3.50
2017-10-21T03:58:21.238Z,2.60
2017-10-21T04:00:49.654Z,3.73
2017-10-21T04:03:18.007Z,2.80
2017-10-21T04:05:45.627Z,3.13
2017-10-21T04:08:13.255Z,2.63
2017-10-21T04:10:41.620Z,2.83
2017-10-21T04:13:09.321Z,3.40
2017-10-21T04:15:36.918Z,3.27
2017-10-21T04:18:04.559Z,2.97
2017-10-21T04:20:32.150Z,3.40
2017-10-21T04:22:59.776Z,3.50
2017-10-21T04:25:27.375Z,2.30
2017-10-21T04:27:54.997Z,3.80
2017-10-21T04:30:22.633Z,2.93
2017-10-21T04:32:51.000Z,3.00
2017-10-21T04:35:19.409Z,2.90
2017-10-21T04:37:47.010Z,2.30
2017-10-21T04:40:14.643Z,3.33
2017-10-21T04:42:42.234Z,3.30
2017-10-21T04:45:09.858Z,2.60
2017-10-21T04:47:37.477Z,3.60
2017-10-21T04:50:05.882Z,2.77
2017-10-21T04:52:33.498Z,3.87
2017-10-21T04:55:01.102Z,2.83
2017-10-21T04:57:28.736Z,2.80
2017-10-21T04:59:56.337Z,2.87
2017-10-21T05:02:23.969Z,4.93
2017-10-21T05:04:52.329Z,2.80
2017-10-21T05:07:19.921Z,3.73
2017-10-21T05:09:47.542Z,3.40
2017-10-21T05:12:15.146Z,3.07
2017-10-21T05:14:42.783Z,3.27
2017-10-21T05:17:10.404Z,2.80
2017-10-21T05:19:38.016Z,2.93
2017-10-21T05:22:06.403Z,3.33
2017-10-21T05:24:34.801Z,3.57
2017-10-21T05:27:02.402Z,2.67
2017-10-21T05:29:30.021Z,3.27
2017-10-21T05:31:57.613Z,3.03
2017-10-21T05:34:25.248Z,2.53
2017-10-21T05:36:52.852Z,3.17
2017-10-21T05:39:20.474Z,4.10
2017-10-21T05:41:48.105Z,2.80
2017-10-21T05:44:17.044Z,3.40
2017-10-21T05:46:44.634Z,2.60
2017-10-21T05:49:12.314Z,3.20
2017-10-21T05:51:40.674Z,2.60
2017-10-21T05:54:08.294Z,3.27
2017-10-21T05:56:35.902Z,2.50
2017-10-21T05:59:03.539Z,3.10
2017-10-21T06:01:31.135Z,2.83
2017-10-21T06:03:59.493Z,2.57
2017-10-21T06:06:27.129Z,2.80
2017-10-21T06:08:54.717Z,2.73
2017-10-21T06:11:22.378Z,3.20
2017-10-21T06:13:49.978Z,2.80
2017-10-21T06:16:17.617Z,2.80
2017-10-21T06:18:45.981Z,3.40
2017-10-21T06:21:13.646Z,2.97
2017-10-21T06:23:41.241Z,2.30
2017-10-21T06:26:09.040Z,2.60
2017-10-21T06:28:36.653Z,3.03
2017-10-21T06:31:04.269Z,2.60
2017-10-21T06:33:31.885Z,3.10
2017-10-21T06:35:59.476Z,2.30
2017-10-21T06:38:27.102Z,2.43
2017-10-21T06:40:54.749Z,2.60
2017-10-21T06:43:23.117Z,2.37
2017-10-21T06:45:51.524Z,2.20
2017-10-21T06:48:19.121Z,2.47
2017-10-21T06:50:46.723Z,2.37
2017-10-21T06:53:15.118Z,3.80
2017-10-21T06:55:42.716Z,2.97
2017-10-21T06:58:10.354Z,2.40
2017-10-21T07:00:37.973Z,2.70
2017-10-21T07:03:05.605Z,2.27
2017-10-21T07:05:34.194Z,3.03
2017-10-21T07:08:01.818Z,3.23
2017-10-21T07:10:29.437Z,2.03
2017-10-21T07:12:57.025Z,2.73
2017-10-21T07:15:25.423Z,3.10
2017-10-21T07:17:53.014Z,2.20
2017-10-21T07:20:20.633Z,2.73
2017-10-21T07:22:48.237Z,2.13
2017-10-21T07:25:15.865Z,2.83
2017-10-21T07:27:43.470Z,2.77
2017-10-21T07:30:11.274Z,3.00
2017-10-21T07:32:38.882Z,2.60
2017-10-21T07:35:06.629Z,2.30
2017-10-21T07:37:34.275Z,3.27
2017-10-21T07:40:02.007Z,4.10
2017-10-21T07:42:30.377Z,3.43
2017-10-21T07:44:58.001Z,3.27
2017-10-21T07:47:25.606Z,2.40
2017-10-21T07:49:54.009Z,2.37
2017-10-21T07:52:21.609Z,3.40
2017-10-21T07:54:49.233Z,3.00
2017-10-21T07:57:16.975Z,3.60
2017-10-21T07:59:45.370Z,2.33
2017-10-21T08:02:12.964Z,2.87
2017-10-21T08:04:41.570Z,2.30
2017-10-21T08:07:09.194Z,3.13
2017-10-21T08:09:36.786Z,2.50
2017-10-21T08:12:04.419Z,2.87
2017-10-21T08:14:32.024Z,2.40
2017-10-21T08:16:59.665Z,2.47
2017-10-21T08:19:28.033Z,2.57
2017-10-21T08:21:55.722Z,2.63
2017-10-21T08:24:23.405Z,2.30
2017-10-21T08:26:51.858Z,2.87
2017-10-21T08:29:19.445Z,2.27
2017-10-21T08:31:47.838Z,2.40
2017-10-21T08:34:15.458Z,3.10
2017-10-21T08:36:43.087Z,2.60
2017-10-21T08:39:10.685Z,2.70
2017-10-21T08:41:38.327Z,2.47
2017-10-21T08:44:05.930Z,2.53
2017-10-21T08:46:33.609Z,2.50
2017-10-21T08:49:01.197Z,2.10
2017-10-21T08:51:28.834Z,2.20
2017-10-21T08:53:56.433Z,2.00
2017-10-21T08:56:24.241Z,2.50
2017-10-21T08:58:52.611Z,2.23
2017-10-21T09:01:21.033Z,2.27
2017-10-21T09:03:48.716Z,2.90
2017-10-21T09:06:16.508Z,1.57
2017-10-21T09:08:44.134Z,2.30
2017-10-21T09:11:11.725Z,3.23
2017-10-21T09:13:39.415Z,2.17
2017-10-21T09:16:07.780Z,1.80
2017-10-21T09:18:36.173Z,3.10
2017-10-21T09:21:04.713Z,2.10
2017-10-21T09:23:32.355Z,2.00
2017-10-21T09:26:00.023Z,2.30
2017-10-21T09:28:27.669Z,2.20
2017-10-21T09:30:55.332Z,2.67
2017-10-21T09:33:22.958Z,2.63
2017-10-21T09:35:51.326Z,1.77
2017-10-21T09:38:19.791Z,3.03
2017-10-21T09:40:47.401Z,2.13
2017-10-21T09:43:15.134Z,2.93
2017-10-21T09:45:43.501Z,3.67
2017-10-21T09:48:11.135Z,1.90
2017-10-21T09:50:39.195Z,2.00
2017-10-21T09:53:06.945Z,2.03
2017-10-21T09:55:34.539Z,3.63
2017-10-21T09:58:02.197Z,2.03
2017-10-21T10:00:29.859Z,1.90
2017-10-21T10:02:57.519Z,1.73
2017-10-21T10:05:25.177Z,2.30
2017-10-21T10:07:52.785Z,1.83
2017-10-21T10:10:21.149Z,1.97
2017-10-21T10:12:49.541Z,2.47
2017-10-21T10:15:17.942Z,1.73
2017-10-21T10:17:45.565Z,2.33
2017-10-21T10:20:13.167Z,2.37
2017-10-21T10:22:40.781Z,2.23
2017-10-21T10:25:08.476Z,2.17
2017-10-21T10:27:36.074Z,2.33
2017-10-21T10:30:03.688Z,1.70
2017-10-21T10:32:32.151Z,3.03
2017-10-21T10:34:59.817Z,1.73
2017-10-21T10:37:27.462Z,2.57
2017-10-21T10:39:55.084Z,2.03
2017-10-21T10:42:22.668Z,1.70
2017-10-21T10:44:50.375Z,2.27
2017-10-21T10:47:18.733Z,1.53
2017-10-21T10:49:46.369Z,1.90
2017-10-21T10:52:13.970Z,2.10
2017-10-21T10:54:42.401Z,1.60
2017-10-21T10:57:28.098Z,1.47
2017-10-21T10:59:55.726Z,2.20
2017-10-21T11:02:23.462Z,2.10
2017-10-21T11:04:51.996Z,1.77
2017-10-21T11:07:25.730Z,2.23
2017-10-21T11:09:54.241Z,2.77
2017-10-21T11:12:25.247Z,2.23
2017-10-21T11:14:53.154Z,1.93
2017-10-21T11:17:20.934Z,2.73
2017-10-21T11:19:49.649Z,3.53
2017-10-21T11:22:17.462Z,2.00
2017-10-21T11:24:45.246Z,1.80
2017-10-21T11:27:13.033Z,1.90
2017-10-21T11:29:40.734Z,2.37
2017-10-21T11:32:08.463Z,2.40
2017-10-21T11:34:36.257Z,1.73
2017-10-21T11:37:04.001Z,1.70
2017-10-21T11:39:31.795Z,2.10
2017-10-21T11:42:00.354Z,2.07
2017-10-21T11:44:28.157Z,2.63
2017-10-21T11:46:56.680Z,3.40
2017-10-21T11:49:24.455Z,2.60
2017-10-21T11:51:52.183Z,1.90
2017-10-21T11:54:19.945Z,2.57
2017-10-21T11:56:47.664Z,2.20
2017-10-21T11:59:17.695Z,1.80
2017-10-21T12:01:45.746Z,3.37
2017-10-21T12:04:13.562Z,3.10
2017-10-21T12:06:41.320Z,2.00
2017-10-21T12:09:09.136Z,2.20
2017-10-21T12:11:37.044Z,2.63
2017-10-21T12:14:04.954Z,3.57
2017-10-21T12:16:32.767Z,2.47
2017-10-21T12:19:01.322Z,2.50
2017-10-21T12:21:29.613Z,2.43
2017-10-21T12:23:57.602Z,1.87
2017-10-21T12:26:25.394Z,3.20
2017-10-21T12:28:53.191Z,3.63
2017-10-21T12:31:21.057Z,2.73
2017-10-21T12:33:49.550Z,2.70
2017-10-21T12:36:17.353Z,1.80
2017-10-21T12:38:45.116Z,2.77
2017-10-21T12:41:13.651Z,2.60
2017-10-21T12:43:41.399Z,3.50
2017-10-21T12:46:11.201Z,2.73
2017-10-21T12:48:38.820Z,2.90
2017-10-21T12:51:06.464Z,2.50
2017-10-21T12:53:34.061Z,2.80
2017-10-21T12:56:01.683Z,2.80
2017-10-21T12:58:29.280Z,3.07
2017-10-21T13:00:56.910Z,2.90
2017-10-21T13:03:24.506Z,2.57
2017-10-21T13:05:52.207Z,3.30
2017-10-21T13:08:19.793Z,3.50
2017-10-21T13:10:47.430Z,3.30
2017-10-21T13:13:15.030Z,3.80
2017-10-21T13:15:43.418Z,2.77
2017-10-21T13:18:11.781Z,3.83
2017-10-21T13:20:39.413Z,3.40
2017-10-21T13:23:07.014Z,3.17
2017-10-21T13:28:10.375Z,3.57
2017-10-21T13:30:37.996Z,5.00
2017-10-21T13:33:07.162Z,2.50
2017-10-21T13:35:34.789Z,3.33
2017-10-21T13:38:02.588Z,3.57
2017-10-21T13:40:30.229Z,2.77
2017-10-21T13:42:57.848Z,3.00
2017-10-21T13:45:26.264Z,2.60
2017-10-21T13:47:53.975Z,4.10
2017-10-21T13:50:21.640Z,3.20
2017-10-21T13:52:49.380Z,3.70
2017-10-21T13:55:17.046Z,3.37
2017-10-21T13:57:44.688Z,3.20
2017-10-21T14:00:12.393Z,4.10
2017-10-21T14:02:40.060Z,4.37
2017-10-21T14:05:07.699Z,4.30
2017-10-21T14:07:35.455Z,3.10
2017-10-21T14:10:03.118Z,3.00
2017-10-21T14:12:30.790Z,2.83
2017-10-21T14:14:58.419Z,2.50
2017-10-21T14:17:26.077Z,3.00
2017-10-21T14:19:53.768Z,3.90
2017-10-21T14:22:21.408Z,2.50
2017-10-21T14:24:49.065Z,2.97
2017-10-21T14:27:16.723Z,3.37
2017-10-21T14:29:44.355Z,3.30
2017-10-21T14:32:12.747Z,2.80
2017-10-21T14:34:41.167Z,2.50
2017-10-21T14:37:08.782Z,3.20
2017-10-21T14:39:37.351Z,2.77
2017-10-21T14:42:05.192Z,2.63
2017-10-21T14:44:32.867Z,2.70
2017-10-21T14:47:00.492Z,2.43
2017-10-21T14:49:28.235Z,3.13
2017-10-21T14:51:55.885Z,3.27
2017-10-21T14:54:24.318Z,2.40
2017-10-21T14:56:51.943Z,2.30
2017-10-21T14:59:19.663Z,2.40
2017-10-21T15:01:48.347Z,2.83
2017-10-21T15:04:16.032Z,2.80
2017-10-21T15:06:44.699Z,3.37
2017-10-21T15:09:12.662Z,2.73
2017-10-21T15:11:40.594Z,2.80
2017-10-21T15:14:08.602Z,2.53
2017-10-21T15:16:36.468Z,2.30
2017-10-21T15:19:04.406Z,2.50
2017-10-21T15:21:32.309Z,2.80
2017-10-21T15:24:00.274Z,2.47
2017-10-21T15:26:28.105Z,2.30
2017-10-21T15:28:56.013Z,3.50
2017-10-21T15:31:23.887Z,3.57
2017-10-21T15:33:51.747Z,2.90
2017-10-21T15:36:19.612Z,2.90
2017-10-21T15:38:47.480Z,2.47
2017-10-21T15:41:15.143Z,2.30
2017-10-21T15:43:42.827Z,2.73
2017-10-21T15:46:10.770Z,2.63
2017-10-21T15:48:38.383Z,3.03
2017-10-21T15:51:06.027Z,3.07
2017-10-21T15:53:34.415Z,4.00
2017-10-21T15:56:02.855Z,3.40
2017-10-21T15:58:31.247Z,3.73
2017-10-21T16:00:58.864Z,3.73
2017-10-21T16:03:26.504Z,3.97
2017-10-21T16:05:54.132Z,3.50
2017-10-21T16:08:21.800Z,3.73
2017-10-21T16:10:49.428Z,4.27
2017-10-21T16:13:17.079Z,4.23
2017-10-21T16:15:44.853Z,3.87
2017-10-21T16:18:12.468Z,3.47
2017-10-21T16:20:40.851Z,3.03
2017-10-21T16:23:09.481Z,3.60
2017-10-21T16:25:37.100Z,3.60
2017-10-21T16:28:05.537Z,4.37
2017-10-21T16:30:33.162Z,2.97
2017-10-21T16:33:00.789Z,3.50
2017-10-21T16:35:29.228Z,2.67
2017-10-21T16:37:56.842Z,4.80
2017-10-21T16:40:25.219Z,3.70
2017-10-21T16:42:54.566Z,4.37
2017-10-21T16:45:22.188Z,4.93
2017-10-21T16:47:50.626Z,5.07
2017-10-21T16:50:18.286Z,5.70
2017-10-21T16:52:45.916Z,4.27
2017-10-21T16:55:13.600Z,7.70
2017-10-21T16:57:41.227Z,10.53
2017-10-21T17:00:08.876Z,5.40
2017-10-21T17:02:36.598Z,4.33
2017-10-21T17:05:04.269Z,5.20
2017-10-21T17:07:31.919Z,5.70
2017-10-21T17:09:59.572Z,6.87
2017-10-21T17:12:27.243Z,5.00
2017-10-21T17:14:55.002Z,4.70
2017-10-21T17:17:22.617Z,3.90
2017-10-21T17:19:51.160Z,4.70
2017-10-21T17:22:18.803Z,6.93
2017-10-21T17:24:46.467Z,4.23
2017-10-21T17:27:14.130Z,8.57
2017-10-21T17:29:41.761Z,4.83
2017-10-21T17:32:09.415Z,6.40
2017-10-21T17:34:37.050Z,4.63
2017-10-21T17:37:04.710Z,5.33
2017-10-21T17:39:32.350Z,5.67
2017-10-21T17:42:00.116Z,7.67
2017-10-21T17:44:27.760Z,4.27
2017-10-21T17:46:55.415Z,7.60
2017-10-21T17:49:23.058Z,12.07
2017-10-21T17:51:50.761Z,5.00
2017-10-21T17:54:18.375Z,3.93
2017-10-21T17:56:46.825Z,5.33
2017-10-21T17:59:14.669Z,5.23
2017-10-21T18:01:42.319Z,5.50
2017-10-21T18:04:10.000Z,5.43
2017-10-21T18:06:37.655Z,5.33
2017-10-21T18:09:05.263Z,4.07
2017-10-21T18:11:33.679Z,5.13
2017-10-21T18:14:01.371Z,4.60
2017-10-21T18:16:29.038Z,5.47
2017-10-21T18:18:56.663Z,4.67
2017-10-21T18:21:24.313Z,4.60
2017-10-21T18:23:51.928Z,6.10
2017-10-21T18:26:21.082Z,4.80
2017-10-21T18:28:48.806Z,7.73
2017-10-21T18:31:17.229Z,9.80
2017-10-21T18:33:44.860Z,7.30
2017-10-21T18:36:13.252Z,5.70
2017-10-21T18:38:41.065Z,7.70
2017-10-21T18:41:08.683Z,6.50
2017-10-21T18:43:36.392Z,8.30
2017-10-21T18:46:04.023Z,7.90
2017-10-21T18:48:31.677Z,6.93
2017-10-21T18:50:59.312Z,9.80
2017-10-21T18:53:27.725Z,5.17
2017-10-21T18:55:55.356Z,7.20
2017-10-21T18:58:23.765Z,7.80
2017-10-21T19:00:51.386Z,7.27
2017-10-21T19:03:19.807Z,10.80
2017-10-21T19:05:47.428Z,6.77
2017-10-21T19:08:15.869Z,8.23
2017-10-21T19:10:43.503Z,15.80
2017-10-21T19:13:11.175Z,9.90
2017-10-21T19:15:38.800Z,7.13
2017-10-21T19:18:07.214Z,5.60
2017-10-21T19:20:34.844Z,8.47
2017-10-21T19:23:03.274Z,8.10
2017-10-21T19:25:30.894Z,6.17
2017-10-21T19:27:59.313Z,6.10
2017-10-21T19:30:26.956Z,8.50
2017-10-21T19:32:54.582Z,7.70
2017-10-21T19:35:22.995Z,8.03
2017-10-21T19:37:50.626Z,8.83
2017-10-21T19:40:19.051Z,6.60
2017-10-21T19:42:46.688Z,8.40
2017-10-21T19:45:14.499Z,5.93
2017-10-21T19:47:42.159Z,8.90
2017-10-21T19:50:09.834Z,5.50
2017-10-21T19:52:37.475Z,5.50
2017-10-21T19:55:05.123Z,5.07
2017-10-21T19:57:33.046Z,7.53
2017-10-21T20:00:01.593Z,6.30
2017-10-21T20:02:29.477Z,8.00
2017-10-21T20:04:57.450Z,10.30
2017-10-21T20:07:25.416Z,8.43
2017-10-21T20:09:54.463Z,6.43
2017-10-21T20:12:22.590Z,9.20
2017-10-21T20:14:50.512Z,8.33
2017-10-21T20:17:19.080Z,7.37
2017-10-21T20:19:47.688Z,8.20
2017-10-21T20:22:16.563Z,9.70
2017-10-21T20:24:44.782Z,5.87
2017-10-21T20:27:13.728Z,6.97
2017-10-21T20:29:41.753Z,7.73
2017-10-21T20:32:09.718Z,6.70
2017-10-21T20:34:37.693Z,8.47
2017-10-21T20:37:05.549Z,9.30
2017-10-21T20:39:33.373Z,8.33
2017-10-21T20:42:01.239Z,6.17
2017-10-21T20:44:29.070Z,5.80
2017-10-21T20:46:56.944Z,5.37
2017-10-21T20:49:25.538Z,7.47
2017-10-21T20:51:54.151Z,6.50
2017-10-21T20:54:22.126Z,7.50
2017-10-21T20:56:49.996Z,9.10
2017-10-21T20:59:17.816Z,6.17
2017-10-21T21:01:46.440Z,7.90
2017-10-21T21:04:14.259Z,4.67
2017-10-21T21:06:42.859Z,5.90
2017-10-21T21:09:11.515Z,6.57
2017-10-21T21:11:39.489Z,6.40
2017-10-21T21:14:07.465Z,5.40
2017-10-21T21:16:36.236Z,5.97
2017-10-21T21:19:04.213Z,6.10
2017-10-21T21:21:32.175Z,7.20
2017-10-21T21:24:00.051Z,6.57
2017-10-21T21:26:27.899Z,4.70
2017-10-21T21:28:55.779Z,7.53
2017-10-21T21:31:23.747Z,6.77
2017-10-21T21:33:51.614Z,5.70
2017-10-21T21:36:19.484Z,5.90
2017-10-21T21:38:47.458Z,5.43
2017-10-21T21:41:15.427Z,5.77
2017-10-21T21:43:43.401Z,6.47
2017-10-21T21:46:11.983Z,5.60
2017-10-21T21:48:39.953Z,5.17
2017-10-21T21:51:07.812Z,5.13
2017-10-21T21:53:35.738Z,4.87
2017-10-21T21:56:03.663Z,6.20
2017-10-21T21:58:31.624Z,5.60
2017-10-21T22:00:59.595Z,7.17
2017-10-21T22:03:27.453Z,6.80
2017-10-21T22:05:55.294Z,6.13
2017-10-21T22:08:23.184Z,5.40
2017-10-21T22:10:50.808Z,4.07
2017-10-21T22:13:18.640Z,4.03
2017-10-21T22:15:47.214Z,4.17
2017-10-21T22:18:15.037Z,4.30
2017-10-21T22:20:42.854Z,7.50
2017-10-21T22:23:11.481Z,5.97
2017-10-21T22:25:39.272Z,3.87
2017-10-21T22:28:07.043Z,6.00
2017-10-21T22:30:34.880Z,6.13
2017-10-21T22:33:02.691Z,5.53
2017-10-21T22:35:30.545Z,5.70
2017-10-21T22:37:58.319Z,6.20
2017-10-21T22:40:26.112Z,5.53
2017-10-21T22:42:54.767Z,5.63
2017-10-21T22:45:22.550Z,6.10
2017-10-21T22:47:51.160Z,4.50
2017-10-21T22:50:18.975Z,4.30
2017-10-21T22:52:47.505Z,6.50
2017-10-21T22:58:22.206Z,5.07
2017-10-21T23:01:02.259Z,4.07
2017-10-21T23:03:30.125Z,4.50
2017-10-21T23:05:58.103Z,4.50
2017-10-21T23:08:25.980Z,5.90
2017-10-21T23:10:53.835Z,4.10
2017-10-21T23:13:21.798Z,4.60
2017-10-21T23:15:49.672Z,5.57
2017-10-21T23:18:18.351Z,4.90
2017-10-21T23:20:46.229Z,4.93
2017-10-21T23:23:13.853Z,4.53
2017-10-21T23:25:41.497Z,5.57
2017-10-21T23:28:09.124Z,4.50
2017-10-21T23:30:36.801Z,5.00
2017-10-21T23:33:05.189Z,5.20
2017-10-21T23:35:33.579Z,4.50
2017-10-21T23:38:01.257Z,4.03
2017-10-21T23:40:28.893Z,4.13
2017-10-21T23:42:57.325Z,3.87
2017-10-21T23:45:24.962Z,3.90
2017-10-21T23:47:52.584Z,3.80
2017-10-21T23:50:21.014Z,3.73
2017-10-21T23:52:48.699Z,3.67
2017-10-21T23:55:16.360Z,3.40
2017-10-21T23:57:44.004Z,3.00
